Pagrindinis puslapis
METAR-TAF:

METAR-TAF

Oro uostai :

Kernsas, Australija

platuma: 16-53S, ilguma: 145-45E, Aukštis: 3 m

Dabartinis oras

Ataskaita buvo paskelbta 26 minutes, ne 10:30 UTC
Vėjas 4 kt iš Pietų/Pietryčių
Temperatūra 29°C
Drėgmė 79%
Slėgis 1009 hPa
Matomumas 10 km arba daugiau
Išsisklaidę debesys ne aukštis 2900 ft
Išsisklaidę debesys ne aukštis 3400 ft

METAR: YBCS 291030Z AUTO 16004KT 9999 // SCT029 SCT034 29/25 Q1009

Laikas: 20:56 (10:56 UTC)

Prognozė

Ataskaita buvo paskelbta 4 valandos ir 35 minutes, ne 06:21 UTC
Prognozė galioja nuo 29 metu 06 UTC su 01 metu 06 UTC
Vėjas 10 kt iš Šiaurės/Šiaurės Rytų
Matomumas 10 km arba daugiau
Išsisklaidę debesys ne aukštis 3500 ft
Nuo 29 metu 0900 UTC
Vėjas 3 kt nuo kintamojo kryptimis
Matomumas 10 km arba daugiau
Išsisklaidę debesys ne aukštis 2500 ft
lietus
Nuo 01 metu 0000 UTC
Vėjas 10 kt iš Rytų/Pietryčių
Matomumas 10 km arba daugiau
Mažai debesys ne aukštis 4000 ft

TAF: YBCS 290621Z 2906/0106 03010KT 9999 SCT035 FM290900 VRB03KT 9999 -SHRA SCT025 FM010000 11010KT 9999 FEW040

Orai ataskaitas ir orų prognozės (METAR, TAF).

turimą stotys yra geltonos ir raudonos taškus žemėlapyje.

Perkelti pele per norėdami pamatyti stoties vardą.

Tada spustelėkite, norėdami matyti oro stebėjimo ir prognozės.

Norėdami pakeisti žemėlapį: spustelėkite ant žalios mygtukų su juodo kryžiaus žemyn,; žalią mygtuką su brūkšneliu, jei norite nutolinti; arba žalių rodyklių gretimoms žemėlapius.


METAR-TAF: